Aérodrome :
LOGIN :

S'inscrire | Disclaimer

   EN    FR    IT 

 










Légende :    VFR   VFR Marginal   IFR   IFR Intensif   IFR Très Intensif
Visi : 
Plafond : 
>= 8 km
>= 3000ft
5 à 8 km
1000 à 3000 ft
1500m à 5 km
500 à 1000 ft
800 à 1500m
200 à 500 ft
< 800m
< 200 ft
Symboles :   Orages  Brouillard  Fortes neiges  Fortes précipitations  Vent > 20 kt
SIGMETs :   Divers  Orages  Givrage  Turbulence  Onde Orograph.  Cendres Volcan.






- Altitude de l'aérodrome : -11 ft
- Code IATA : AMS


EHAM - Amsterdam Schiphol

DERNIER METAR :
  • 252325Z 15009KT 110V170 1600 BR FEW001 BKN002 02/02 Q1018 BECMG 0500 FG BKN001

METARs EXPIRÉS :
  • 252255Z 13008KT 2400 BR FEW002 BKN003 02/02 Q1018 BECMG 1200 BKN002
  • 252225Z 15008KT 120V180 3000 BR FEW003 OVC004 02/02 Q1019 BECMG 2000 OVC003
  • 252155Z 15009KT 3500 BR FEW003 BKN004 OVC005 03/02 Q1019 BECMG 2000 OVC003
  • 252125Z 15007KT 2300 BR FEW003 BKN004 OVC006 03/02 Q1019 BECMG OVC003
  • 252055Z 15007KT 2700 BR FEW003 BKN004 OVC008 03/02 Q1020 BECMG OVC003

TAF TAF EHAM
Valide du 26 à 00h jusqu'au 27 à 06h UTC


252315Z 2600/2706 16007KT 2000 BR BKN002
BECMG 2600/2603 0500 FG BKN001
BECMG 2609/2612 19011KT 2500 BR BKN004
BECMG 2612/2615 6000 NSW BKN007
BECMG 2615/2618 9999 BKN012
BECMG 2618/2620 BKN025
BECMG 2622/2701 7000 -RA BKN012
TEMPO 2700/2705 4000 RADZ BKN007
BECMG 2704/2706 23012KT 9999 NSW



MET'MAP, la Météo Aéronautique d'un coup d'oeil ! - Copyright ORBIFLY Décembre 2007 - Disclaimer

ORBIFLY MET'MAP TEAM :

Programmation & Développement : Alexandra Zaïnal
Sur une idée originale de : Baudouin d'Aumeries
Assistance à la programmation : Marc-Olivier Méhu
Soutien technique & logistique : Manuel Goepfert

Contact : metmap@orbifly.com




SOURCES & CREDITS :

   NOAA